KLIMATOLOGI DAS MARISA B. UTARA

Tanggal Temperature (oC) RH (%) PAN 'A' Kecepatan Angin (KM/hari) Sinar Matahari (%) Hujan Biasa (mm)
Max Min Rata-rata Temp Air Dlm Tangki (oC) Penguapan (mm)
2021-12-31 33.2 23.6 28.4 80.4 27.5 3.5 62.4 46.59 0
2021-12-30 32.8 23.8 28.3 90 27 2.5 48.3 44.96 0.01
2021-12-29 32.6 23.4 28 83.6 28.5 6.2 61.8 58.28 18.6
2021-12-28 32.2 23 27.6 78.8 25 1.7 32.3 14.99 0.6
2021-12-27 32.2 24.4 28.3 75 26.5 2.5 61.3 13.32 0.01
2021-12-26 33 23.8 28.4 85.4 28.5 4.6 71.8 71.61 1
2021-12-25 32.6 24 28.3 83 28 3.6 52.4 44.96 0
2021-12-24 32.3 23.6 27.95 79.8 27 3.9 80.9 49.13 0
2021-12-23 32.8 23.8 28.3 86.8 28 3.9 83 54.12 25
2021-12-22 32 24.2 28.1 79.8 27 3.5 61.3 54.12 0.01
2021-12-21 32.4 22.8 27.6 86.8 27 6.5 66.8 29.14 27.8
2021-12-20 33.4 24.8 29.1 83 27.5 2.4 53.5 37.47 7
2021-12-19 32.2 24.4 28.3 90 27 5.1 65.2 14.99 27.4
2021-12-18 32.8 24.2 28.5 92 28 3.8 60.5 67.44 1
2021-12-17 33.6 23.4 28.5 92 28 4.6 83.6 60.78 13.2
2021-12-16 33 25 29 85.4 28 4.9 102.8 65.78 0
2021-12-15 32.2 25 28.6 87 27.5 4.5 103.4 71.84 0
2021-12-14 31.8 24.2 28 79.8 27 4.2 102.2 66.89 0
2021-12-13 32.8 24.8 28.8 89 27 4.8 107.1 74.32 0
2021-12-12 33.4 24 28.7 80.4 28 5.4 140.3 42.94 0
2021-12-11 33.4 24.6 29 76 28.5 5.5 118.6 72.67 0
2021-12-10 33.2 24.4 28.8 78.2 27.5 5.2 102.2 85.05 0
2021-12-09 33.8 23.8 28.8 82 26.5 3.9 75.8 52.85 0
2021-12-08 33.4 23.4 28.4 70.2 27 5.5 146.8 38.81 0.01
2021-12-07 33.2 26.6 29.9 66.6 25.5 6.5 198.5 56.98 0.01
2021-12-06 33.4 26.6 30 57.8 25.5 6.1 227.4 41.29 0
2021-12-05 33.8 24.2 29 83.6 27.5 4.7 110.8 48.72 0
2021-12-04 33.4 25 29.2 72.8 26 3.6 88.9 37.99 0.01
2021-12-03 33.4 25.2 29.3 90 28.5 4.9 100.3 54.5 0
2021-12-02 33.4 25.2 29.3 87 28.5 4.4 60.5 52.02 0.01
2021-12-01 33.6 25 29.3 72.8 28 3.9 90.4 60.28 0